createdAt,value
2018-12-10T00:02:10.667Z,25.40
2018-12-10T00:04:39.220Z,25.30
2018-12-10T00:07:08.073Z,25.40
2018-12-10T00:09:36.599Z,25.40
2018-12-10T00:12:05.248Z,25.40
2018-12-10T00:14:33.965Z,25.30
2018-12-10T00:17:03.440Z,25.40
2018-12-10T00:19:31.987Z,25.40
2018-12-10T00:22:00.705Z,25.40
2018-12-10T00:24:29.260Z,25.30
2018-12-10T00:26:59.031Z,25.30
2018-12-10T00:29:30.080Z,25.30
2018-12-10T00:31:59.675Z,25.30
2018-12-10T00:34:32.411Z,25.30
2018-12-10T00:37:03.676Z,25.30
2018-12-10T00:39:32.975Z,25.30
2018-12-10T00:42:03.422Z,25.30
2018-12-10T00:44:33.715Z,25.30
2018-12-10T00:47:04.500Z,25.40
2018-12-10T00:49:35.922Z,25.40
2018-12-10T00:52:05.980Z,25.30
2018-12-10T00:54:36.219Z,25.30
2018-12-10T00:57:06.026Z,25.30
2018-12-10T00:59:35.428Z,25.30
2018-12-10T01:02:04.783Z,25.20
2018-12-10T01:04:34.435Z,25.30
2018-12-10T01:07:04.239Z,25.30
2018-12-10T01:09:34.492Z,25.30
2018-12-10T01:12:03.447Z,25.30
2018-12-10T01:14:33.441Z,25.30
2018-12-10T01:17:04.452Z,25.30
2018-12-10T01:19:33.920Z,25.30
2018-12-10T01:22:04.180Z,25.30
2018-12-10T01:24:34.436Z,25.40
2018-12-10T01:27:04.823Z,25.30
2018-12-10T01:29:35.620Z,25.30
2018-12-10T01:32:06.011Z,25.30
2018-12-10T01:34:35.867Z,25.20
2018-12-10T01:37:05.944Z,25.20
2018-12-10T01:39:35.148Z,25.20
2018-12-10T01:42:05.465Z,25.20
2018-12-10T01:44:37.107Z,25.20
2018-12-10T01:47:08.803Z,25.30
2018-12-10T01:49:39.940Z,25.20
2018-12-10T01:52:10.240Z,25.20
2018-12-10T01:54:39.900Z,25.20
2018-12-10T01:57:09.547Z,25.20
2018-12-10T01:59:40.917Z,25.20
2018-12-10T02:02:10.751Z,25.20
2018-12-10T02:04:40.880Z,25.20
2018-12-10T02:07:11.796Z,25.20
2018-12-10T02:09:42.166Z,25.20
2018-12-10T02:12:11.958Z,25.20
2018-12-10T02:14:40.430Z,25.30
2018-12-10T02:17:11.145Z,25.30
2018-12-10T02:19:42.292Z,25.20
2018-12-10T02:22:11.709Z,25.20
2018-12-10T02:24:41.758Z,25.20
2018-12-10T02:27:11.947Z,25.20
2018-12-10T02:29:41.915Z,25.20
2018-12-10T02:32:11.697Z,25.10
2018-12-10T02:34:44.694Z,25.20
2018-12-10T02:37:14.900Z,25.20
2018-12-10T02:39:45.204Z,25.10
2018-12-10T02:42:15.354Z,25.10
2018-12-10T02:44:44.638Z,25.10
2018-12-10T02:47:15.572Z,25.10
2018-12-10T02:49:46.748Z,25.10
2018-12-10T02:52:16.376Z,25.10
2018-12-10T02:54:46.649Z,25.10
2018-12-10T02:57:16.956Z,25.10
2018-12-10T02:59:46.284Z,25.10
2018-12-10T03:02:16.309Z,25.10
2018-12-10T03:04:45.879Z,25.20
2018-12-10T03:07:22.735Z,25.20
2018-12-10T03:09:54.283Z,25.20
2018-12-10T03:12:23.844Z,25.30
2018-12-10T03:14:53.977Z,25.30
2018-12-10T03:17:24.123Z,25.30
2018-12-10T03:19:54.397Z,25.30
2018-12-10T03:22:23.620Z,25.40
2018-12-10T03:24:52.253Z,25.50
2018-12-10T03:27:22.332Z,25.70
2018-12-10T03:29:53.779Z,26.00
2018-12-10T03:32:25.022Z,26.60
2018-12-10T03:34:54.846Z,27.00
2018-12-10T03:37:25.255Z,27.60
2018-12-10T03:39:54.611Z,27.80
2018-12-10T03:42:24.366Z,28.60
2018-12-10T03:44:55.274Z,29.10
2018-12-10T03:47:27.757Z,29.60
2018-12-10T03:49:58.789Z,30.70
2018-12-10T03:52:28.187Z,31.00
2018-12-10T03:55:00.249Z,30.90
2018-12-10T03:57:31.252Z,31.20
2018-12-10T04:00:01.780Z,31.40
2018-12-10T04:02:30.369Z,31.70
2018-12-10T04:05:00.393Z,31.10
2018-12-10T04:07:29.771Z,29.50
2018-12-10T04:09:58.920Z,28.80
2018-12-10T04:12:27.779Z,28.50
2018-12-10T04:14:57.683Z,28.30
2018-12-10T04:17:27.732Z,28.30
2018-12-10T04:19:57.912Z,28.30
2018-12-10T04:22:28.243Z,28.50
2018-12-10T04:24:57.979Z,28.50
2018-12-10T04:27:27.933Z,28.50
2018-12-10T04:29:58.337Z,28.70
2018-12-10T04:32:28.337Z,28.40
2018-12-10T04:35:00.649Z,28.30
2018-12-10T04:37:30.391Z,28.60
2018-12-10T04:40:00.288Z,28.30
2018-12-10T04:42:31.418Z,28.60
2018-12-10T04:45:00.591Z,28.60
2018-12-10T04:47:30.740Z,28.90
2018-12-10T04:50:02.454Z,29.00
2018-12-10T04:52:32.929Z,28.90
2018-12-10T04:55:03.611Z,29.10
2018-12-10T04:57:35.359Z,29.10
2018-12-10T05:00:08.469Z,29.10
2018-12-10T05:02:37.917Z,29.00
2018-12-10T05:05:06.979Z,28.70
2018-12-10T05:07:39.123Z,28.80
2018-12-10T05:10:08.691Z,28.90
2018-12-10T05:12:39.285Z,29.20
2018-12-10T05:15:10.906Z,29.20
2018-12-10T05:17:40.902Z,29.00
2018-12-10T05:20:11.644Z,29.20
2018-12-10T05:22:41.059Z,29.20
2018-12-10T05:25:11.096Z,29.20
2018-12-10T05:27:41.210Z,29.40
2018-12-10T05:30:12.435Z,29.40
2018-12-10T05:32:42.000Z,29.60
2018-12-10T05:35:11.893Z,29.50
2018-12-10T05:37:42.407Z,29.50
2018-12-10T05:40:14.516Z,29.30
2018-12-10T05:42:44.211Z,29.40
2018-12-10T05:45:14.275Z,29.50
2018-12-10T05:47:44.309Z,29.50
2018-12-10T05:50:15.231Z,29.60
2018-12-10T05:52:45.423Z,29.20
2018-12-10T05:55:14.599Z,29.40
2018-12-10T05:57:47.456Z,29.40
2018-12-10T06:00:16.504Z,29.60
2018-12-10T06:02:48.840Z,29.50
2018-12-10T06:05:18.141Z,29.60
2018-12-10T06:07:48.788Z,29.50
2018-12-10T06:10:19.283Z,30.10
2018-12-10T06:12:49.192Z,30.30
2018-12-10T06:15:19.867Z,29.80
2018-12-10T06:17:49.369Z,29.60
2018-12-10T06:20:18.814Z,29.80
2018-12-10T06:22:49.112Z,29.70
2018-12-10T06:25:20.408Z,29.80
2018-12-10T06:27:49.463Z,29.80
2018-12-10T06:30:19.475Z,29.60
2018-12-10T06:32:49.057Z,29.60
2018-12-10T06:35:18.860Z,29.60
2018-12-10T06:37:48.955Z,29.70
2018-12-10T06:40:19.102Z,29.70
2018-12-10T06:42:49.089Z,29.80
2018-12-10T06:45:20.467Z,29.60
2018-12-10T06:47:49.893Z,29.60
2018-12-10T06:50:20.636Z,29.90
2018-12-10T06:52:50.904Z,29.80
2018-12-10T06:55:21.882Z,29.90
2018-12-10T06:57:52.404Z,30.30
2018-12-10T07:00:22.473Z,30.20
2018-12-10T07:02:51.575Z,30.10
2018-12-10T07:05:21.487Z,30.30
2018-12-10T07:07:51.092Z,30.10
2018-12-10T07:10:20.310Z,30.00
2018-12-10T07:12:49.982Z,29.80
2018-12-10T07:15:21.407Z,29.60
2018-12-10T07:17:50.579Z,29.00
2018-12-10T07:20:19.719Z,28.80
2018-12-10T07:22:50.187Z,28.90
2018-12-10T07:25:20.471Z,29.00
2018-12-10T07:27:50.972Z,29.20
2018-12-10T07:30:19.623Z,29.10
2018-12-10T07:32:48.488Z,29.20
2018-12-10T07:35:19.059Z,29.20
2018-12-10T07:37:48.003Z,29.50
2018-12-10T07:40:16.985Z,29.60
2018-12-10T07:42:47.892Z,29.90
2018-12-10T07:45:17.455Z,29.90
2018-12-10T07:47:48.155Z,29.70
2018-12-10T07:50:17.364Z,29.70
2018-12-10T07:52:47.880Z,29.70
2018-12-10T07:55:16.944Z,29.40
2018-12-10T07:57:48.023Z,29.60
2018-12-10T08:00:18.019Z,29.60
2018-12-10T08:02:48.095Z,29.80
2018-12-10T08:05:18.359Z,29.70
2018-12-10T08:07:48.531Z,29.60
2018-12-10T08:10:18.788Z,29.70
2018-12-10T08:12:48.776Z,29.90
2018-12-10T08:15:20.023Z,30.00
2018-12-10T08:17:49.780Z,30.10
2018-12-10T08:20:19.163Z,30.10
2018-12-10T08:22:49.599Z,30.30
2018-12-10T08:25:18.700Z,30.30
2018-12-10T08:27:48.293Z,30.50
2018-12-10T08:30:17.559Z,30.30
2018-12-10T08:35:23.512Z,30.40
2018-12-10T08:37:53.271Z,30.50
2018-12-10T08:40:22.905Z,30.40
2018-12-10T08:42:52.340Z,30.20
2018-12-10T08:45:22.523Z,30.20
2018-12-10T08:47:51.740Z,30.30
2018-12-10T08:50:21.435Z,30.40
2018-12-10T08:52:55.332Z,30.20
2018-12-10T08:55:25.212Z,30.20
2018-12-10T08:57:56.667Z,30.30
2018-12-10T09:00:25.808Z,30.40
2018-12-10T09:02:55.162Z,30.60
2018-12-10T09:05:24.836Z,30.50
2018-12-10T09:07:54.104Z,30.40
2018-12-10T09:10:23.643Z,30.50
2018-12-10T09:12:53.060Z,30.60
2018-12-10T09:15:23.140Z,30.20
2018-12-10T09:17:53.045Z,30.20
2018-12-10T09:20:22.533Z,30.20
2018-12-10T09:22:52.475Z,30.20
2018-12-10T09:25:24.745Z,30.00
2018-12-10T09:27:54.727Z,30.30
2018-12-10T09:30:24.700Z,30.50
2018-12-10T09:32:54.220Z,30.40
2018-12-10T09:35:23.295Z,30.10
2018-12-10T09:37:53.296Z,30.20
2018-12-10T09:40:24.393Z,30.40
2018-12-10T09:42:54.527Z,30.20
2018-12-10T09:45:23.394Z,30.10
2018-12-10T09:47:56.041Z,29.90
2018-12-10T09:50:25.550Z,30.00
2018-12-10T09:52:57.116Z,30.20
2018-12-10T09:55:26.683Z,30.10
2018-12-10T09:57:56.354Z,30.10
2018-12-10T10:00:27.232Z,29.90
2018-12-10T10:02:57.044Z,29.80
2018-12-10T10:05:26.372Z,29.80
2018-12-10T10:07:55.911Z,29.60
2018-12-10T10:10:26.837Z,29.60
2018-12-10T10:12:56.542Z,29.60
2018-12-10T10:15:27.397Z,29.40
2018-12-10T10:17:59.045Z,29.60
2018-12-10T10:20:28.630Z,29.60
2018-12-10T10:22:58.428Z,29.60
2018-12-10T10:25:28.515Z,29.40
2018-12-10T10:27:57.804Z,29.50
2018-12-10T10:30:28.101Z,29.40
2018-12-10T10:32:57.613Z,29.40
2018-12-10T10:35:30.356Z,29.30
2018-12-10T10:38:00.355Z,29.40
2018-12-10T10:40:30.171Z,29.40
2018-12-10T10:43:00.339Z,29.30
2018-12-10T10:45:34.705Z,29.20
2018-12-10T10:48:01.565Z,29.20
2018-12-10T10:50:31.616Z,29.10
2018-12-10T10:53:03.092Z,29.20
2018-12-10T10:55:33.829Z,29.10
2018-12-10T10:58:03.632Z,29.10
2018-12-10T11:03:39.714Z,29.00
2018-12-10T11:06:08.735Z,29.10
2018-12-10T11:08:37.463Z,29.00
2018-12-10T11:11:05.843Z,28.90
2018-12-10T11:13:34.627Z,29.00
2018-12-10T11:16:03.176Z,29.00
2018-12-10T11:18:31.659Z,29.00
2018-12-10T11:21:00.624Z,28.90
2018-12-10T11:23:29.215Z,28.80
2018-12-10T11:25:57.989Z,28.90
2018-12-10T11:28:26.956Z,28.90
2018-12-10T11:30:55.400Z,28.80
2018-12-10T11:33:23.985Z,28.80
2018-12-10T11:35:52.980Z,28.70
2018-12-10T11:38:21.707Z,28.80
2018-12-10T11:40:50.152Z,28.80
2018-12-10T11:43:19.019Z,28.90
2018-12-10T11:45:47.663Z,28.80
2018-12-10T11:48:15.882Z,28.60
2018-12-10T11:50:44.900Z,28.70
2018-12-10T11:53:14.308Z,28.70
2018-12-10T11:55:42.887Z,28.70
2018-12-10T11:58:11.753Z,28.60
2018-12-10T12:00:40.212Z,28.60
2018-12-10T12:03:08.727Z,28.60
2018-12-10T12:05:37.919Z,28.40
2018-12-10T12:08:06.672Z,28.40
2018-12-10T12:10:35.130Z,28.50
2018-12-10T12:13:03.991Z,28.40
2018-12-10T12:15:32.668Z,28.50
2018-12-10T12:18:01.115Z,28.40
2018-12-10T12:20:29.970Z,28.30
2018-12-10T12:22:58.623Z,28.50
2018-12-10T12:25:27.088Z,28.40
2018-12-10T12:27:56.031Z,28.40
2018-12-10T12:30:24.587Z,28.40
2018-12-10T12:32:54.020Z,28.50
2018-12-10T12:35:22.907Z,28.50
2018-12-10T12:37:51.663Z,28.40
2018-12-10T12:40:20.123Z,28.20
2018-12-10T12:42:49.085Z,28.20
2018-12-10T12:45:17.661Z,28.20
2018-12-10T12:47:46.756Z,28.20
2018-12-10T12:50:16.692Z,28.10
2018-12-10T12:52:45.095Z,28.00
2018-12-10T12:55:14.792Z,28.10
2018-12-10T12:57:43.662Z,28.10
2018-12-10T13:00:12.242Z,28.00
2018-12-10T13:02:40.967Z,27.90
2018-12-10T13:05:10.067Z,27.90
2018-12-10T13:07:38.464Z,28.00
2018-12-10T13:10:07.285Z,28.00
2018-12-10T13:12:36.062Z,27.90
2018-12-10T13:15:06.415Z,27.80
2018-12-10T13:17:35.139Z,27.80
2018-12-10T13:20:07.001Z,27.80
2018-12-10T13:22:35.448Z,27.70
2018-12-10T13:25:06.332Z,27.50
2018-12-10T13:27:35.154Z,27.60
2018-12-10T13:30:06.597Z,27.80
2018-12-10T13:32:35.055Z,27.70
2018-12-10T13:35:06.840Z,27.70
2018-12-10T13:37:35.451Z,27.70
2018-12-10T13:40:07.512Z,27.60
2018-12-10T13:42:35.948Z,27.50
2018-12-10T13:45:06.408Z,27.50
2018-12-10T13:47:35.349Z,27.40
2018-12-10T13:50:06.828Z,27.40
2018-12-10T13:52:35.261Z,27.50
2018-12-10T13:55:06.640Z,27.50
2018-12-10T13:57:35.800Z,27.50
2018-12-10T14:00:09.203Z,27.30
2018-12-10T14:02:37.793Z,27.30
2018-12-10T14:05:08.418Z,27.40
2018-12-10T14:07:37.497Z,27.40
2018-12-10T14:10:06.791Z,27.40
2018-12-10T14:12:35.551Z,27.40
2018-12-10T14:15:07.612Z,27.30
2018-12-10T14:17:36.007Z,27.20
2018-12-10T14:20:06.496Z,27.10
2018-12-10T14:22:35.248Z,27.30
2018-12-10T14:25:04.343Z,27.30
2018-12-10T14:27:32.956Z,27.30
2018-12-10T14:30:01.757Z,27.30
2018-12-10T14:32:30.232Z,27.30
2018-12-10T14:34:58.811Z,27.40
2018-12-10T14:37:28.192Z,27.30
2018-12-10T14:39:56.803Z,27.30
2018-12-10T14:42:25.557Z,27.40
2018-12-10T14:44:54.311Z,27.20
2018-12-10T14:47:22.840Z,27.30
2018-12-10T14:49:51.551Z,27.30
2018-12-10T14:52:20.620Z,27.30
2018-12-10T14:54:49.080Z,27.30
2018-12-10T14:57:17.958Z,27.20
2018-12-10T14:59:49.230Z,27.20
2018-12-10T15:02:17.761Z,27.20
2018-12-10T15:04:46.416Z,27.30
2018-12-10T15:07:15.471Z,27.20
2018-12-10T15:09:44.163Z,27.20
2018-12-10T15:12:12.603Z,27.20
2018-12-10T15:14:41.515Z,27.20
2018-12-10T15:17:10.228Z,27.30
2018-12-10T15:19:38.716Z,27.30
2018-12-10T15:22:07.549Z,27.30
2018-12-10T15:24:36.292Z,27.30
2018-12-10T15:27:06.368Z,27.30
2018-12-10T15:29:35.135Z,27.20
2018-12-10T15:32:06.473Z,27.20
2018-12-10T15:34:35.063Z,27.20
2018-12-10T15:37:06.420Z,27.10
2018-12-10T15:39:35.303Z,27.10
2018-12-10T15:42:06.451Z,27.00
2018-12-10T15:44:35.168Z,27.00
2018-12-10T15:47:07.748Z,27.00
2018-12-10T15:49:36.611Z,27.00
2018-12-10T15:52:06.696Z,27.00
2018-12-10T15:54:35.139Z,27.00
2018-12-10T15:57:07.207Z,27.00
2018-12-10T15:59:35.868Z,27.00
2018-12-10T16:02:05.472Z,27.00
2018-12-10T16:04:34.575Z,27.00
2018-12-10T16:07:03.084Z,27.00
2018-12-10T16:09:31.806Z,27.00
2018-12-10T16:12:00.504Z,27.00
2018-12-10T16:14:29.007Z,27.10
2018-12-10T16:16:57.767Z,27.00
2018-12-10T16:19:26.448Z,27.00
2018-12-10T16:21:54.900Z,26.90
2018-12-10T16:24:23.377Z,27.00
2018-12-10T16:26:51.940Z,26.90
2018-12-10T16:29:20.523Z,27.00
2018-12-10T16:31:49.282Z,27.00
2018-12-10T16:34:18.558Z,26.90
2018-12-10T16:36:47.163Z,26.90
2018-12-10T16:39:15.697Z,26.80
2018-12-10T16:41:44.583Z,26.80
2018-12-10T16:44:13.269Z,26.80
2018-12-10T16:46:41.763Z,26.70
2018-12-10T16:49:10.651Z,26.70
2018-12-10T16:51:39.224Z,26.70
2018-12-10T16:54:07.695Z,26.70
2018-12-10T16:56:36.642Z,26.70
2018-12-10T16:59:05.188Z,26.60
2018-12-10T17:01:33.937Z,26.60
2018-12-10T17:04:04.393Z,26.60
2018-12-10T17:06:32.994Z,26.70
2018-12-10T17:09:01.989Z,26.60
2018-12-10T17:11:44.660Z,26.60
2018-12-10T17:17:18.741Z,26.60
2018-12-10T17:19:47.421Z,26.60
2018-12-10T17:22:16.200Z,26.60
2018-12-10T17:24:45.726Z,26.60
2018-12-10T17:27:14.468Z,26.60
2018-12-10T17:29:42.861Z,26.50
2018-12-10T17:32:11.708Z,26.50
2018-12-10T17:34:40.265Z,26.50
2018-12-10T17:37:08.835Z,26.50
2018-12-10T17:39:37.578Z,26.50
2018-12-10T17:42:06.121Z,26.50
2018-12-10T17:44:34.811Z,26.50
2018-12-10T17:47:08.628Z,26.40
2018-12-10T17:49:34.469Z,26.50
2018-12-10T17:52:04.101Z,26.40
2018-12-10T17:54:33.042Z,26.40
2018-12-10T17:57:03.038Z,26.40
2018-12-10T17:59:31.565Z,26.50
2018-12-10T18:02:00.538Z,26.40
2018-12-10T18:04:30.645Z,26.40
2018-12-10T18:06:58.705Z,26.50
2018-12-10T18:09:27.477Z,26.50
2018-12-10T18:11:56.003Z,26.60
2018-12-10T18:14:24.613Z,26.60
2018-12-10T18:16:53.333Z,26.60
2018-12-10T18:19:21.761Z,26.60
2018-12-10T18:21:50.369Z,26.60
2018-12-10T18:24:18.926Z,26.60
2018-12-10T18:26:47.518Z,26.60
2018-12-10T18:29:16.198Z,26.60
2018-12-10T18:31:44.949Z,26.50
2018-12-10T18:34:13.761Z,26.60
2018-12-10T18:36:42.465Z,26.60
2018-12-10T18:39:11.149Z,26.60
2018-12-10T18:41:39.622Z,26.50
2018-12-10T18:44:08.018Z,26.50
2018-12-10T18:46:36.904Z,26.50
2018-12-10T18:49:05.284Z,26.40
2018-12-10T18:51:33.979Z,26.30
2018-12-10T18:54:02.929Z,26.30
2018-12-10T18:56:31.232Z,26.40
2018-12-10T18:58:59.862Z,26.40
2018-12-10T19:01:28.889Z,26.40
2018-12-10T19:03:57.291Z,26.40
2018-12-10T19:06:26.281Z,26.40
2018-12-10T19:08:55.361Z,26.40
2018-12-10T19:11:24.193Z,26.40
2018-12-10T19:13:52.806Z,26.40
2018-12-10T19:16:21.792Z,26.30
2018-12-10T19:18:50.545Z,26.30
2018-12-10T19:21:19.246Z,26.40
2018-12-10T19:23:48.178Z,26.40
2018-12-10T19:26:16.748Z,26.40
2018-12-10T19:28:45.474Z,26.40
2018-12-10T19:31:14.056Z,26.20
2018-12-10T19:33:42.589Z,26.30
2018-12-10T19:36:11.312Z,26.30
2018-12-10T19:38:40.518Z,26.30
2018-12-10T19:41:08.877Z,26.30
2018-12-10T19:43:37.436Z,26.30
2018-12-10T19:46:06.259Z,26.30
2018-12-10T19:48:34.677Z,26.30
2018-12-10T19:51:03.524Z,26.30
2018-12-10T19:53:32.385Z,26.30
2018-12-10T19:56:01.074Z,26.20
2018-12-10T19:58:29.828Z,26.10
2018-12-10T20:00:58.348Z,26.10
2018-12-10T20:03:27.880Z,26.20
2018-12-10T20:06:02.584Z,26.20
2018-12-10T20:08:32.420Z,26.20
2018-12-10T20:11:00.848Z,26.20
2018-12-10T20:13:29.909Z,26.20
2018-12-10T20:15:58.486Z,26.20
2018-12-10T20:18:28.044Z,26.10
2018-12-10T20:20:57.060Z,26.10
2018-12-10T20:23:25.673Z,26.10
2018-12-10T20:25:54.427Z,26.10
2018-12-10T20:28:23.167Z,26.10
2018-12-10T20:30:51.874Z,26.00
2018-12-10T20:33:20.594Z,26.00
2018-12-10T20:35:49.316Z,26.00
2018-12-10T20:38:18.029Z,26.00
2018-12-10T20:40:46.825Z,25.90
2018-12-10T20:43:15.727Z,25.90
2018-12-10T20:45:44.246Z,25.90
2018-12-10T20:48:12.925Z,25.80
2018-12-10T20:50:42.641Z,25.80
2018-12-10T20:53:11.325Z,25.80
2018-12-10T20:55:40.077Z,25.80
2018-12-10T20:58:08.893Z,25.80
2018-12-10T21:00:37.421Z,25.80
2018-12-10T21:03:05.970Z,25.80
2018-12-10T21:05:36.797Z,25.80
2018-12-10T21:08:05.504Z,25.80
2018-12-10T21:10:36.029Z,25.80
2018-12-10T21:13:04.765Z,25.80
2018-12-10T21:15:33.300Z,25.80
2018-12-10T21:18:02.053Z,25.80
2018-12-10T21:20:30.948Z,25.80
2018-12-10T21:22:59.468Z,25.80
2018-12-10T21:25:28.218Z,25.80
2018-12-10T21:27:56.904Z,25.80
2018-12-10T21:30:25.453Z,25.80
2018-12-10T21:32:54.101Z,25.80
2018-12-10T21:35:22.968Z,25.80
2018-12-10T21:37:51.495Z,25.70
2018-12-10T21:40:20.101Z,25.70
2018-12-10T21:42:49.074Z,25.80
2018-12-10T21:45:17.520Z,25.70
2018-12-10T21:47:46.033Z,25.70
2018-12-10T21:50:14.989Z,25.70
2018-12-10T21:52:43.480Z,25.70
2018-12-10T21:55:16.923Z,25.70
2018-12-10T21:57:43.037Z,25.70
2018-12-10T22:00:11.650Z,25.70
2018-12-10T22:02:40.083Z,25.70
2018-12-10T22:05:09.162Z,25.70
2018-12-10T22:07:37.685Z,25.70
2018-12-10T22:10:06.412Z,25.80
2018-12-10T22:12:36.558Z,25.80
2018-12-10T22:15:05.312Z,25.70
2018-12-10T22:17:33.888Z,25.80
2018-12-10T22:20:03.740Z,25.80
2018-12-10T22:22:32.265Z,25.80
2018-12-10T22:25:00.952Z,25.70
2018-12-10T22:27:29.974Z,25.70
2018-12-10T22:29:58.396Z,25.70
2018-12-10T22:32:26.912Z,25.70
2018-12-10T22:34:55.829Z,25.80
2018-12-10T22:37:24.578Z,25.70
2018-12-10T22:39:53.109Z,25.70
2018-12-10T22:42:22.101Z,25.70
2018-12-10T22:44:50.744Z,25.80
2018-12-10T22:47:19.534Z,25.70
2018-12-10T22:49:48.288Z,25.80
2018-12-10T22:52:16.822Z,25.70
2018-12-10T22:54:45.436Z,25.80
2018-12-10T22:57:14.356Z,25.80
2018-12-10T22:59:42.749Z,25.80
2018-12-10T23:02:11.261Z,25.80
2018-12-10T23:04:40.360Z,25.80
2018-12-10T23:07:09.041Z,25.80
2018-12-10T23:09:37.502Z,25.70
2018-12-10T23:12:06.317Z,25.70
2018-12-10T23:14:35.854Z,25.70
2018-12-10T23:17:04.437Z,25.70
2018-12-10T23:19:33.509Z,25.70
2018-12-10T23:22:02.404Z,25.80
2018-12-10T23:24:31.086Z,25.80
2018-12-10T23:27:00.085Z,25.80
2018-12-10T23:29:28.830Z,25.80
2018-12-10T23:31:57.281Z,25.70
2018-12-10T23:34:26.040Z,25.70
2018-12-10T23:36:54.816Z,25.70
2018-12-10T23:39:23.285Z,25.70
2018-12-10T23:41:52.108Z,25.70
2018-12-10T23:44:26.509Z,25.60
2018-12-10T23:46:55.584Z,25.60
2018-12-10T23:49:24.110Z,25.60
2018-12-10T23:51:52.784Z,25.60
2018-12-10T23:54:21.781Z,25.60
2018-12-10T23:56:50.560Z,25.60
2018-12-10T23:59:19.084Z,25.50
